Time;durP1;ratioP1;P1;durP2;ratioP2;P2;SDS_P1;SDS_P2;PMS_P1;PMS_P2;Temp;Humidity;BMP_temperature;BMP_pressure;BME280_temperature;BME280_humidity;BME280_pressure;Samples;Min_cycle;Max_cycle;Signal;HPM_P1;HPM_P2
2021/06/10 00:02:08;;;;;;;28.35;19.67;;;;;;;16.57;84.19;96683.03;5031397;28;20571;-74
2021/06/10 00:04:34;;;;;;;25.55;19.55;;;;;;;16.55;84.24;96680.66;5031823;28;20049;-75
2021/06/10 00:07:00;;;;;;;28.13;20.63;;;;;;;16.53;84.25;96682.13;5031846;28;20034;-76
2021/06/10 00:09:28;;;;;;;24.17;18.52;;;;;;;16.54;83.98;96683.72;5031696;28;20033;-75
2021/06/10 00:11:54;;;;;;;26.98;19.83;;;;;;;16.54;83.40;96686.47;5031709;28;20052;-75
2021/06/10 00:14:20;;;;;;;26.63;19.40;;;;;;;16.52;83.36;96683.28;5031254;28;20045;-75
2021/06/10 00:16:45;;;;;;;24.52;18.15;;;;;;;16.52;83.29;96684.09;5031777;28;20095;-75
2021/06/10 00:19:13;;;;;;;22.38;18.30;;;;;;;16.52;82.68;96680.53;5031198;28;20444;-74
2021/06/10 00:21:39;;;;;;;25.38;17.17;;;;;;;16.49;82.45;96681.22;5031673;28;20091;-75
2021/06/10 00:24:06;;;;;;;28.92;18.52;;;;;;;16.47;82.62;96681.56;5030966;28;20061;-75
2021/06/10 00:26:34;;;;;;;24.95;17.90;;;;;;;16.44;83.03;96685.00;5042100;28;20045;-75
2021/06/10 00:29:00;;;;;;;23.40;17.23;;;;;;;16.41;83.07;96683.75;5050091;28;20045;-75
2021/06/10 00:31:26;;;;;;;22.52;17.38;;;;;;;16.40;83.27;96679.41;5051240;28;20503;-75
2021/06/10 00:33:52;;;;;;;25.17;18.48;;;;;;;16.38;83.26;96686.41;5051310;28;20040;-75
2021/06/10 00:36:18;;;;;;;29.33;18.45;;;;;;;16.35;83.15;96687.91;5050883;28;20068;-74
2021/06/10 00:38:46;;;;;;;23.20;18.63;;;;;;;16.33;83.21;96694.88;5051013;28;20049;-75
2021/06/10 00:41:12;;;;;;;25.42;19.13;;;;;;;16.31;83.23;96694.44;5050971;28;20052;-74
2021/06/10 00:43:39;;;;;;;27.75;19.25;;;;;;;16.27;83.54;96699.81;5051467;28;20045;-74
2021/06/10 00:46:06;;;;;;;25.13;18.98;;;;;;;16.26;83.56;96695.47;5050740;28;20063;-77
2021/06/10 00:48:34;;;;;;;30.33;19.98;;;;;;;16.23;83.89;96695.34;5051356;28;20071;-75
2021/06/10 00:51:00;;;;;;;27.67;19.48;;;;;;;16.21;83.89;96698.47;5050906;28;20045;-75
2021/06/10 00:53:27;;;;;;;26.35;19.10;;;;;;;16.19;84.02;96692.53;5050719;28;20036;-75
2021/06/10 00:55:54;;;;;;;25.83;19.85;;;;;;;16.18;84.03;96691.72;5050963;28;20122;-74
2021/06/10 00:58:21;;;;;;;29.73;20.00;;;;;;;16.14;84.19;96690.00;5041754;28;20056;-75
2021/06/10 01:00:49;;;;;;;25.20;18.92;;;;;;;16.12;84.14;96690.34;5031092;28;20523;-74
2021/06/10 01:03:15;;;;;;;26.65;18.45;;;;;;;16.11;84.11;96687.94;5030673;28;20492;-75
2021/06/10 01:05:43;;;;;;;25.17;18.48;;;;;;;16.10;83.89;96680.84;5030716;28;20061;-74
2021/06/10 01:08:16;;;;;;;27.08;19.73;;;;;;;16.08;84.17;96689.44;5030178;28;20071;-74
2021/06/10 01:10:51;;;;;;;25.75;18.00;;;;;;;16.05;83.90;96683.84;5030944;28;20037;-74
2021/06/10 01:13:23;;;;;;;22.38;17.90;;;;;;;16.01;83.98;96680.16;5030517;28;20049;-74
2021/06/10 01:15:55;;;;;;;24.48;19.20;;;;;;;16.00;83.92;96686.81;5030762;28;20497;-74
2021/06/10 01:18:22;;;;;;;22.75;18.52;;;;;;;15.98;84.23;96683.63;5030354;28;20050;-74
2021/06/10 01:20:49;;;;;;;27.65;19.73;;;;;;;15.95;84.38;96678.81;5030602;28;20555;-74
2021/06/10 01:23:22;;;;;;;27.15;20.02;;;;;;;15.93;84.31;96678.38;5030285;28;20437;-74
2021/06/10 01:26:03;;;;;;;23.27;18.55;;;;;;;15.93;84.33;96681.09;5035418;28;20048;-74
2021/06/10 01:28:34;;;;;;;28.98;19.75;;;;;;;15.90;84.43;96674.34;5040410;28;20037;-75
2021/06/10 01:31:03;;;;;;;25.33;19.00;;;;;;;15.89;84.47;96679.03;5030525;28;20180;-74
2021/06/10 01:33:33;;;;;;;30.40;19.45;;;;;;;15.85;84.39;96672.63;5030429;28;20092;-74
2021/06/10 01:36:02;;;;;;;23.55;17.65;;;;;;;15.82;84.58;96673.34;5030938;28;20076;-73
2021/06/10 01:38:31;;;;;;;27.13;18.95;;;;;;;15.78;84.27;96669.66;5030550;28;20053;-74
2021/06/10 01:40:58;;;;;;;25.35;18.23;;;;;;;15.74;84.01;96670.69;5030567;28;20048;-74
2021/06/10 01:43:26;;;;;;;26.90;18.35;;;;;;;15.73;83.85;96671.84;5030125;28;20045;-74
2021/06/10 01:45:56;;;;;;;26.90;19.33;;;;;;;15.72;84.03;96671.03;5030645;28;20052;-73
2021/06/10 01:48:23;;;;;;;26.67;19.83;;;;;;;15.70;84.12;96667.81;5030248;28;20052;-74
2021/06/10 01:50:52;;;;;;;25.55;18.13;;;;;;;15.67;83.92;96671.28;5030739;28;20056;-74
2021/06/10 01:53:18;;;;;;;26.15;17.90;;;;;;;15.67;83.85;96671.28;5029850;28;20050;-74
2021/06/10 01:55:47;;;;;;;29.35;20.10;;;;;;;15.65;83.96;96671.59;5034614;28;20053;-74
2021/06/10 01:58:13;;;;;;;25.63;19.75;;;;;;;15.64;83.98;96663.72;5041841;28;20053;-74
2021/06/10 02:00:40;;;;;;;23.73;18.77;;;;;;;15.64;84.01;96670.00;5030528;28;20064;-74
2021/06/10 02:03:09;;;;;;;28.35;20.27;;;;;;;15.65;84.26;96657.06;5030050;28;20049;-73
2021/06/10 02:05:37;;;;;;;26.77;20.13;;;;;;;15.64;84.38;96656.28;5030376;28;20045;-74
2021/06/10 02:08:03;;;;;;;29.27;20.88;;;;;;;15.64;84.43;96660.97;5030032;28;20107;-73
2021/06/10 02:10:29;;;;;;;29.92;20.08;;;;;;;15.64;84.58;96660.97;5030419;28;20045;-75
2021/06/10 02:12:56;;;;;;;24.95;19.20;;;;;;;15.64;84.51;96658.22;5030498;28;20378;-75
2021/06/10 02:15:22;;;;;;;25.13;18.83;;;;;;;15.64;84.66;96660.97;5029904;28;20636;-74
2021/06/10 02:17:49;;;;;;;24.83;18.33;;;;;;;15.64;84.30;96659.03;5031856;28;20553;-74
2021/06/10 02:20:18;;;;;;;24.58;18.17;;;;;;;15.64;84.35;96652.72;5033519;28;20484;-74
2021/06/10 02:22:45;;;;;;;27.98;19.52;;;;;;;15.64;84.26;96658.22;5033898;28;20045;-74
2021/06/10 02:25:11;;;;;;;24.77;19.00;;;;;;;15.65;83.88;96659.81;5033269;28;20041;-74
2021/06/10 02:27:37;;;;;;;28.92;19.98;;;;;;;15.63;84.00;96657.41;5029652;28;20053;-75
2021/06/10 02:30:04;;;;;;;22.60;17.77;;;;;;;15.61;84.18;96664.38;5033245;28;20465;-74
2021/06/10 02:32:30;;;;;;;28.38;19.23;;;;;;;15.62;84.16;96665.97;5025896;28;20052;-74
2021/06/10 02:34:57;;;;;;;23.77;17.42;;;;;;;15.63;83.80;96659.38;5033662;28;20095;-74
2021/06/10 02:37:26;;;;;;;26.42;17.98;;;;;;;15.61;83.71;96659.69;5033043;28;20052;-74
2021/06/10 02:39:53;;;;;;;27.45;18.88;;;;;;;15.59;84.13;96666.66;5033607;28;20053;-76
2021/06/10 02:42:20;;;;;;;28.67;19.13;;;;;;;15.59;84.08;96661.97;5032820;28;20050;-76
2021/06/10 02:44:50;;;;;;;26.17;18.58;;;;;;;15.57;84.23;96671.69;5033462;28;20048;-76
2021/06/10 02:47:16;;;;;;;29.17;17.48;;;;;;;15.57;84.23;96657.97;5032754;28;20448;-75
2021/06/10 02:49:45;;;;;;;21.90;16.63;;;;;;;15.57;83.14;96669.75;5033511;28;20068;-76
2021/06/10 02:52:12;;;;;;;25.35;17.95;;;;;;;15.56;83.24;96662.66;5032422;28;20046;-75
2021/06/10 02:54:40;;;;;;;25.15;18.73;;;;;;;15.53;83.57;96663.34;5033455;28;20061;-76
2021/06/10 02:57:08;;;;;;;22.67;17.83;;;;;;;15.52;83.80;96666.44;5047889;28;20041;-75
2021/06/10 02:59:36;;;;;;;25.67;17.38;;;;;;;15.49;83.89;96667.91;5053236;28;20049;-75
2021/06/10 03:02:03;;;;;;;23.33;16.83;;;;;;;15.49;83.94;96664.34;5049657;28;20060;-74
2021/06/10 03:04:29;;;;;;;24.27;17.50;;;;;;;15.47;83.98;96659.22;5032936;28;20041;-75
2021/06/10 03:06:56;;;;;;;24.10;17.65;;;;;;;15.46;84.13;96667.81;5032986;28;20046;-76
2021/06/10 03:09:23;;;;;;;22.23;16.83;;;;;;;15.46;83.98;96674.09;5032452;28;20046;-77
2021/06/10 03:11:51;;;;;;;23.92;18.15;;;;;;;15.46;83.87;96674.09;5033055;28;20041;-76
2021/06/10 03:14:18;;;;;;;28.30;18.77;;;;;;;15.45;84.00;96674.41;5032285;28;20046;-75
2021/06/10 03:16:47;;;;;;;26.60;17.10;;;;;;;15.44;84.17;96675.56;5032949;28;20052;-76
2021/06/10 03:19:14;;;;;;;28.20;19.00;;;;;;;15.44;84.14;96681.03;5032266;28;20496;-76
2021/06/10 03:21:40;;;;;;;27.45;17.98;;;;;;;15.44;84.30;96681.03;5032843;28;20124;-76
2021/06/10 03:24:07;;;;;;;25.70;18.40;;;;;;;15.45;84.08;96677.94;5032300;28;20072;-75
2021/06/10 03:26:36;;;;;;;26.83;18.48;;;;;;;15.47;84.01;96674.88;5043529;28;20041;-76
2021/06/10 03:29:06;;;;;;;27.90;19.85;;;;;;;15.47;84.15;96680.38;5051362;28;20053;-75
2021/06/10 03:31:33;;;;;;;25.83;19.02;;;;;;;15.46;84.28;96693.31;5052582;28;20036;-73
2021/06/10 03:34:00;;;;;;;25.30;17.30;;;;;;;15.45;84.57;96688.13;5033344;28;20048;-76
2021/06/10 03:36:28;;;;;;;28.67;18.58;;;;;;;15.42;84.38;96686.09;5032445;28;20041;-76
2021/06/10 03:38:56;;;;;;;26.20;18.15;;;;;;;15.42;84.10;96694.31;5032348;28;20492;-77
2021/06/10 03:41:23;;;;;;;27.30;18.73;;;;;;;15.43;84.02;96690.44;5031900;28;20061;-77
2021/06/10 03:43:49;;;;;;;28.77;19.60;;;;;;;15.45;84.02;96688.13;5032181;28;20452;-76
2021/06/10 03:46:17;;;;;;;26.55;19.13;;;;;;;15.46;84.22;96695.25;5031983;28;20404;-76
2021/06/10 03:48:43;;;;;;;29.98;18.80;;;;;;;15.48;84.32;96699.25;5032153;28;20045;-76
2021/06/10 03:51:10;;;;;;;27.92;18.73;;;;;;;15.50;83.93;96702.44;5031669;28;20041;-76
2021/06/10 03:53:37;;;;;;;26.23;18.17;;;;;;;15.54;83.29;96703.34;5032159;28;20080;-76
2021/06/10 03:56:03;;;;;;;28.05;20.33;;;;;;;15.53;82.67;96695.47;5038205;28;20041;-75
2021/06/10 03:58:29;;;;;;;29.48;21.00;;;;;;;15.51;82.72;96695.03;5051832;28;20504;-76
2021/06/10 04:00:55;;;;;;;29.00;19.73;;;;;;;15.47;83.17;96696.84;5052232;28;20045;-76
2021/06/10 04:03:22;;;;;;;26.52;18.92;;;;;;;15.42;83.40;96686.09;5042463;28;20069;-76
2021/06/10 04:05:49;;;;;;;27.58;19.90;;;;;;;15.40;83.77;96689.97;5032082;28;20049;-76
2021/06/10 04:08:15;;;;;;;30.73;18.98;;;;;;;15.39;83.83;96690.31;5031413;28;20195;-75
2021/06/10 04:10:41;;;;;;;26.23;19.83;;;;;;;15.30;84.21;96695.91;5032026;28;20056;-78
2021/06/10 04:13:07;;;;;;;27.67;19.67;;;;;;;15.34;84.79;96694.06;5031535;28;20468;-76
2021/06/10 04:15:33;;;;;;;30.65;20.70;;;;;;;15.40;85.08;96691.94;5032126;28;20045;-76
2021/06/10 04:17:59;;;;;;;32.10;22.70;;;;;;;15.46;84.90;96695.25;5031765;28;20095;-76
2021/06/10 04:20:26;;;;;;;28.27;20.40;;;;;;;15.52;85.13;96696.63;5031172;28;20511;-76
2021/06/10 04:22:52;;;;;;;32.67;21.40;;;;;;;15.60;85.26;96699.25;5031738;28;20042;-76
2021/06/10 04:25:18;;;;;;;31.92;21.80;;;;;;;15.61;84.81;96702.81;5031523;28;20045;-75
2021/06/10 04:27:44;;;;;;;27.50;20.55;;;;;;;15.65;84.63;96701.78;5051295;28;20407;-76
2021/06/10 04:30:13;;;;;;;27.40;20.13;;;;;;;15.69;84.24;96693.69;5051101;28;20052;-76
2021/06/10 04:32:39;;;;;;;27.23;19.58;;;;;;;15.72;84.43;96695.75;5048050;28;20060;-75
2021/06/10 04:35:06;;;;;;;29.17;20.52;;;;;;;15.78;84.43;96691.63;5031399;28;20041;-74
2021/06/10 04:37:34;;;;;;;27.85;19.88;;;;;;;15.76;84.19;96699.41;5031156;28;20053;-76
2021/06/10 04:40:00;;;;;;;31.13;20.33;;;;;;;15.76;84.49;96693.91;5031148;28;20045;-76
2021/06/10 04:42:26;;;;;;;30.73;20.42;;;;;;;15.77;84.38;96692.78;5028739;28;20079;-75
2021/06/10 04:44:52;;;;;;;29.63;21.20;;;;;;;15.78;84.43;96688.88;5031290;28;20096;-74
2021/06/10 04:47:18;;;;;;;30.95;20.48;;;;;;;15.80;84.36;96694.81;5030895;28;20057;-75
2021/06/10 04:49:44;;;;;;;30.65;20.05;;;;;;;15.84;84.55;96703.19;5030931;28;20133;-75
2021/06/10 04:52:11;;;;;;;30.08;20.10;;;;;;;15.84;84.71;96706.72;5030622;28;20049;-74
2021/06/10 04:54:38;;;;;;;29.83;21.27;;;;;;;15.93;84.82;96708.56;5031109;28;20053;-74
2021/06/10 04:57:05;;;;;;;32.60;22.00;;;;;;;15.96;84.97;96708.66;5045763;28;20048;-76
2021/06/10 04:59:31;;;;;;;32.65;22.40;;;;;;;16.05;85.42;96705.81;5050521;28;20045;-75
2021/06/10 05:01:57;;;;;;;32.53;22.75;;;;;;;16.10;85.11;96706.38;5048804;28;20389;-75
2021/06/10 05:04:23;;;;;;;33.40;22.95;;;;;;;16.15;85.21;96706.13;5030626;28;20488;-75
2021/06/10 05:06:50;;;;;;;36.50;25.27;;;;;;;16.22;84.81;96700.06;5030472;28;20045;-74
2021/06/10 05:09:16;;;;;;;38.63;24.08;;;;;;;16.32;84.89;96705.06;5030377;28;20048;-75
2021/06/10 05:11:43;;;;;;;31.02;22.67;;;;;;;16.38;84.16;96702.88;5030857;28;20049;-75
2021/06/10 05:14:09;;;;;;;33.50;23.55;;;;;;;16.39;83.91;96705.31;5030397;28;20057;-73
2021/06/10 05:16:35;;;;;;;33.20;23.35;;;;;;;16.38;84.05;96703.69;5030747;28;20098;-75
2021/06/10 05:19:01;;;;;;;32.08;22.50;;;;;;;16.46;84.14;96709.41;5030431;28;20053;-73
2021/06/10 05:21:27;;;;;;;37.55;23.65;;;;;;;16.52;84.17;96708.81;5030741;28;20471;-75
2021/06/10 05:23:53;;;;;;;30.42;21.83;;;;;;;16.49;82.95;96708.72;5030637;28;20038;-74
2021/06/10 05:26:19;;;;;;;34.05;23.27;;;;;;;16.48;83.59;96707.09;5039004;28;20048;-72
2021/06/10 05:28:47;;;;;;;36.40;24.20;;;;;;;16.51;83.60;96700.94;5065921;28;20053;-75
2021/06/10 05:31:13;;;;;;;35.30;25.00;;;;;;;16.54;84.00;96709.25;5049982;28;20423;-74
2021/06/10 05:33:39;;;;;;;36.33;25.65;;;;;;;16.60;84.43;96710.66;5038947;28;20056;-74
2021/06/10 05:36:06;;;;;;;36.35;26.67;;;;;;;16.68;84.59;96706.13;5030191;28;20483;-75
2021/06/10 05:38:33;;;;;;;31.50;23.70;;;;;;;16.69;83.71;96707.72;5030498;28;20042;-75
2021/06/10 05:40:59;;;;;;;34.28;23.52;;;;;;;16.71;83.22;96710.97;5030591;28;20112;-75
2021/06/10 05:43:25;;;;;;;33.70;23.42;;;;;;;16.72;82.38;96711.78;5030190;28;20053;-74
2021/06/10 05:45:53;;;;;;;34.20;22.83;;;;;;;16.69;82.54;96707.72;5030407;28;20056;-75
2021/06/10 05:48:19;;;;;;;32.72;23.60;;;;;;;16.66;82.57;96724.94;5029989;28;20053;-74
2021/06/10 05:50:45;;;;;;;36.20;23.88;;;;;;;16.71;82.73;96716.47;5030450;28;20041;-74
2021/06/10 05:53:11;;;;;;;34.00;23.75;;;;;;;16.74;82.34;96724.03;5031825;28;20046;-74
2021/06/10 05:55:38;;;;;;;37.38;25.02;;;;;;;16.79;82.57;96722.97;5037448;28;20053;-74
2021/06/10 05:58:04;;;;;;;33.65;23.50;;;;;;;16.84;82.88;96720.78;5053722;28;20068;-73
2021/06/10 06:00:31;;;;;;;34.78;23.08;;;;;;;16.82;82.09;96728.59;5054068;28;20099;-74
2021/06/10 06:03:02;;;;;;;34.42;24.65;;;;;;;16.83;82.03;96724.69;5043479;28;20053;-75
2021/06/10 06:05:29;;;;;;;33.05;23.40;;;;;;;16.86;82.09;96724.00;5034034;28;20072;-74
2021/06/10 06:07:55;;;;;;;30.60;22.45;;;;;;;16.87;82.25;96725.59;5033984;28;20053;-74
2021/06/10 06:10:22;;;;;;;33.45;22.02;;;;;;;16.88;82.31;96727.19;5033632;28;20073;-74
2021/06/10 06:12:50;;;;;;;34.05;21.90;;;;;;;16.88;81.26;96724.44;5034289;28;20050;-74
2021/06/10 06:15:16;;;;;;;32.30;22.05;;;;;;;16.91;81.25;96731.16;5033303;28;20072;-74
2021/06/10 06:17:43;;;;;;;33.03;22.95;;;;;;;16.87;81.52;96725.59;5033778;28;20076;-74
2021/06/10 06:20:12;;;;;;;32.08;21.90;;;;;;;16.92;81.61;96736.34;5033320;28;20038;-74
2021/06/10 06:22:41;;;;;;;33.45;22.42;;;;;;;16.92;82.08;96733.59;5033556;28;20385;-74
2021/06/10 06:25:09;;;;;;;34.58;24.13;;;;;;;16.90;82.19;96735.06;5033091;28;20214;-74
2021/06/10 06:27:35;;;;;;;35.30;23.73;;;;;;;16.91;81.69;96737.50;5052729;28;20049;-74
2021/06/10 06:30:01;;;;;;;32.78;21.73;;;;;;;16.98;82.50;96739.66;5053919;28;20124;-74
2021/06/10 06:32:28;;;;;;;32.63;22.92;;;;;;;17.05;82.87;96741.78;5046641;28;20120;-74
2021/06/10 06:34:54;;;;;;;34.53;22.95;;;;;;;17.09;82.33;96734.44;5033531;28;20120;-74
2021/06/10 06:37:21;;;;;;;35.85;23.77;;;;;;;17.09;81.62;96735.25;5032306;28;20400;-75
2021/06/10 06:39:47;;;;;;;31.17;23.02;;;;;;;17.08;81.31;96741.09;5031560;28;20584;-75
2021/06/10 06:42:14;;;;;;;35.53;22.98;;;;;;;17.09;81.88;96738.00;5031166;28;20127;-76
2021/06/10 06:44:40;;;;;;;35.30;23.52;;;;;;;17.16;81.82;96742.88;5033169;28;20045;-75
2021/06/10 06:47:06;;;;;;;36.03;24.38;;;;;;;17.21;82.34;96746.19;5032895;28;20052;-75
2021/06/10 06:49:32;;;;;;;30.48;21.58;;;;;;;17.26;81.90;96745.13;5033306;28;20092;-75
2021/06/10 06:51:58;;;;;;;31.50;21.67;;;;;;;17.34;81.48;96749.69;5032875;28;20508;-75
2021/06/10 06:54:25;;;;;;;31.13;22.95;;;;;;;17.42;81.75;96745.97;5033074;28;20474;-75
2021/06/10 06:56:51;;;;;;;30.05;21.63;;;;;;;17.54;81.95;96753.38;5046306;28;20108;-76
2021/06/10 06:59:17;;;;;;;35.85;21.85;;;;;;;17.69;80.72;96749.00;5052562;28;20057;-77
2021/06/10 07:01:43;;;;;;;28.75;21.02;;;;;;;17.81;80.30;96756.44;5053055;28;20128;-77
2021/06/10 07:04:09;;;;;;;31.05;20.60;;;;;;;17.88;79.46;96751.91;5033160;28;20115;-77
2021/06/10 07:06:35;;;;;;;25.88;18.60;;;;;;;17.87;79.06;96750.31;5033188;28;20560;-78
2021/06/10 07:09:01;;;;;;;39.83;23.95;;;;;;;17.91;80.38;96751.19;5031312;28;20050;-75
2021/06/10 07:11:28;;;;;;;25.83;18.83;;;;;;;17.94;77.12;96755.97;5032525;28;20052;-78
2021/06/10 07:13:54;;;;;;;30.75;19.02;;;;;;;17.96;77.99;96752.88;5028890;28;20412;-78
2021/06/10 07:16:20;;;;;;;29.52;19.88;;;;;;;17.94;77.32;96747.72;5044982;28;20045;-78
2021/06/10 07:18:46;;;;;;;29.48;18.98;;;;;;;18.02;76.98;96756.97;5052550;28;20120;-78
2021/06/10 07:21:12;;;;;;;30.88;22.38;;;;;;;18.12;79.93;96750.91;5052320;28;20124;-78
2021/06/10 07:23:38;;;;;;;30.88;21.48;;;;;;;18.26;78.87;96753.19;5052609;28;20045;-78
2021/06/10 07:26:04;;;;;;;30.63;21.85;;;;;;;18.39;79.79;96753.91;5051867;28;20080;-77
2021/06/10 07:28:31;;;;;;;30.23;21.20;;;;;;;18.52;77.82;96750.66;5052076;28;20037;-78
2021/06/10 07:30:57;;;;;;;27.15;20.92;;;;;;;18.66;75.97;96757.66;5052623;28;20045;-78
2021/06/10 07:33:24;;;;;;;28.15;20.50;;;;;;;18.63;74.86;96755.59;5045071;28;20048;-77
2021/06/10 07:35:50;;;;;;;28.98;20.25;;;;;;;18.67;76.57;96760.03;5052542;28;20037;-78
2021/06/10 07:38:16;;;;;;;30.63;20.92;;;;;;;18.77;77.59;96758.72;5051699;28;20045;-78
2021/06/10 07:40:42;;;;;;;29.33;21.92;;;;;;;18.84;77.19;96758.84;5052289;28;20049;-78
2021/06/10 07:43:08;;;;;;;30.85;22.75;;;;;;;18.89;76.38;96761.31;5051569;28;20041;-78
2021/06/10 07:45:37;;;;;;;32.20;22.73;;;;;;;18.94;74.77;96758.28;5052133;28;20052;-77
2021/06/10 07:48:04;;;;;;;27.55;21.05;;;;;;;18.94;73.51;96760.25;5051513;28;20414;-78
2021/06/10 07:50:31;;;;;;;28.63;21.95;;;;;;;18.90;75.37;96756.63;5052165;28;20522;-77
2021/06/10 07:52:57;;;;;;;30.45;21.70;;;;;;;18.91;75.02;96753.50;5051731;28;20052;-78
2021/06/10 07:55:23;;;;;;;35.08;23.88;;;;;;;19.02;75.35;96762.78;5051495;28;20514;-78
2021/06/10 07:57:50;;;;;;;26.55;21.58;;;;;;;19.10;74.98;96760.16;5051882;28;20037;-77
2021/06/10 08:00:18;;;;;;;28.55;20.90;;;;;;;19.22;74.21;96765.56;5051318;28;20045;-79
2021/06/10 08:02:45;;;;;;;28.50;20.90;;;;;;;19.30;72.36;96761.75;5044679;28;20061;-78
2021/06/10 08:05:12;;;;;;;31.65;23.52;;;;;;;19.49;75.54;96772.00;5031376;28;20049;-78
2021/06/10 08:07:42;;;;;;;28.85;21.90;;;;;;;19.67;74.18;96767.63;5031572;28;20045;-78
2021/06/10 08:10:10;;;;;;;29.42;22.88;;;;;;;19.93;75.08;96769.66;5031580;28;20041;-78
2021/06/10 08:12:36;;;;;;;28.27;22.23;;;;;;;20.00;75.17;96760.72;5031658;28;20043;-78
2021/06/10 08:15:03;;;;;;;27.92;20.95;;;;;;;20.01;71.94;96759.53;5031065;28;20045;-77
2021/06/10 08:17:30;;;;;;;25.77;20.65;;;;;;;20.77;74.24;96751.22;5031583;28;20507;-78
2021/06/10 08:19:57;;;;;;;25.23;19.60;;;;;;;21.44;66.52;96751.28;5031636;28;20044;-77
2021/06/10 08:22:23;;;;;;;26.38;19.27;;;;;;;22.38;64.87;96753.75;5031028;28;20064;-78
2021/06/10 08:24:49;;;;;;;27.40;19.40;;;;;;;22.98;59.54;96747.81;5031806;28;20539;-78
2021/06/10 08:27:15;;;;;;;26.50;19.13;;;;;;;23.27;60.64;96750.69;5047030;28;20045;-78
2021/06/10 08:29:41;;;;;;;30.00;20.33;;;;;;;23.90;64.54;96746.50;5051347;28;20143;-79
2021/06/10 08:32:07;;;;;;;24.95;19.88;;;;;;;24.65;59.58;96747.31;5049516;28;20049;-78
2021/06/10 08:34:33;;;;;;;21.95;16.77;;;;;;;24.56;59.09;96743.38;5050724;28;20434;-78
2021/06/10 08:37:01;;;;;;;23.45;18.23;;;;;;;24.86;59.10;96745.69;5051270;28;20053;-78
2021/06/10 08:39:28;;;;;;;19.50;16.05;;;;;;;25.39;54.50;96744.72;5050991;28;20483;-77
2021/06/10 08:41:54;;;;;;;20.65;16.73;;;;;;;25.49;52.77;96743.88;5051143;28;20071;-78
2021/06/10 08:44:21;;;;;;;22.52;18.40;;;;;;;25.48;53.40;96742.28;5050876;28;20064;-77
2021/06/10 08:46:49;;;;;;;21.17;17.33;;;;;;;25.60;50.60;96739.03;5051007;28;20041;-78
2021/06/10 08:49:15;;;;;;;24.40;17.42;;;;;;;25.70;53.84;96735.38;5050492;28;20649;-78
2021/06/10 08:51:41;;;;;;;21.02;17.33;;;;;;;25.58;51.84;96738.66;5051073;28;20098;-78
2021/06/10 08:54:08;;;;;;;22.70;18.63;;;;;;;25.35;58.01;96743.94;5050160;28;20037;-78
2021/06/10 08:56:35;;;;;;;28.73;16.45;;;;;;;25.32;55.82;96739.97;5050774;28;20040;-79
2021/06/10 08:59:01;;;;;;;20.98;16.70;;;;;;;25.41;57.16;96736.72;5050917;28;20041;-78
2021/06/10 09:01:29;;;;;;;18.13;14.57;;;;;;;25.49;51.69;96743.88;5050961;28;20041;-77
2021/06/10 09:03:55;;;;;;;23.02;16.63;;;;;;;25.19;51.98;96736.84;5047097;28;20056;-79
2021/06/10 09:06:21;;;;;;;19.25;15.88;;;;;;;25.25;52.52;96738.00;5050664;28;20239;-78
2021/06/10 09:08:49;;;;;;;21.20;16.92;;;;;;;25.14;52.67;96728.91;5050877;28;20060;-78
2021/06/10 09:11:18;;;;;;;25.58;20.23;;;;;;;25.25;56.95;96735.22;5030352;28;20049;-78
2021/06/10 09:13:46;;;;;;;26.40;20.10;;;;;;;25.37;57.60;96736.78;5046179;28;20045;-78
2021/06/10 09:16:20;;;;;;;30.40;21.00;;;;;;;25.38;59.14;96732.00;5050262;28;20045;-79
2021/06/10 09:18:52;;;;;;;23.75;16.85;;;;;;;25.36;54.27;96728.78;5050370;28;20510;-78
2021/06/10 09:21:26;;;;;;;26.50;20.13;;;;;;;25.14;56.44;96728.91;5050178;28;20474;-76
2021/06/10 09:23:52;;;;;;;25.58;19.27;;;;;;;24.69;57.47;96738.94;5050578;28;20190;-77
2021/06/10 09:26:19;;;;;;;28.02;21.15;;;;;;;24.44;60.12;96737.03;5050056;28;20044;-76
2021/06/10 09:28:50;;;;;;;26.77;21.45;;;;;;;24.42;62.81;96725.47;5053889;28;20072;-76
2021/06/10 09:31:30;;;;;;;23.35;18.80;;;;;;;24.55;58.19;96736.22;5054332;28;20045;-76
2021/06/10 09:33:56;;;;;;;27.50;21.42;;;;;;;24.57;58.75;96740.16;5053171;28;20044;-77
2021/06/10 09:36:24;;;;;;;34.83;22.75;;;;;;;24.61;58.50;96729.81;5030238;28;20112;-77
2021/06/10 09:39:06;;;;;;;23.70;19.15;;;;;;;24.48;55.71;96739.78;5050892;28;20554;-76
2021/06/10 09:41:33;;;;;;;24.88;18.95;;;;;;;24.44;57.16;96742.59;5053933;28;20044;-77
2021/06/10 09:43:59;;;;;;;26.08;20.73;;;;;;;24.51;58.49;96741.78;5054447;28;20094;-78
2021/06/10 09:46:25;;;;;;;26.95;20.35;;;;;;;24.54;57.76;96752.13;5054083;28;20045;-77
2021/06/10 09:49:04;;;;;;;25.58;19.38;;;;;;;24.52;58.35;96740.56;5054306;28;20552;-76
2021/06/10 09:51:30;;;;;;;22.00;16.92;;;;;;;24.69;60.74;96739.78;5054176;28;20040;-77
2021/06/10 09:53:58;;;;;;;20.83;16.92;;;;;;;24.83;51.60;96740.91;5054141;28;20415;-77
2021/06/10 09:56:24;;;;;;;24.70;17.02;;;;;;;24.84;52.50;96731.34;5044002;28;20054;-77
2021/06/10 09:58:55;;;;;;;22.80;17.27;;;;;;;24.92;52.78;96730.16;5053891;28;20049;-76
2021/06/10 10:01:23;;;;;;;21.67;15.90;;;;;;;24.90;54.41;96735.31;5053629;28;20391;-77
2021/06/10 10:03:51;;;;;;;22.48;17.88;;;;;;;25.04;55.48;96729.69;5038571;28;20128;-76
2021/06/10 10:06:23;;;;;;;21.65;17.63;;;;;;;24.92;56.39;96732.94;5033462;28;20045;-77
2021/06/10 10:08:52;;;;;;;21.00;16.60;;;;;;;24.62;56.86;96734.19;5034374;28;20038;-76
2021/06/10 10:11:19;;;;;;;19.70;16.98;;;;;;;24.38;57.64;96733.06;5033377;28;20056;-77
2021/06/10 10:13:48;;;;;;;19.42;15.13;;;;;;;24.14;55.18;96734.63;5034179;28;20057;-76
2021/06/10 10:16:19;;;;;;;18.63;14.48;;;;;;;23.92;57.67;96735.81;5033237;28;20053;-77
2021/06/10 10:18:46;;;;;;;14.05;12.23;;;;;;;23.93;59.00;96735.41;5034212;28;20443;-76
2021/06/10 10:21:12;;;;;;;19.95;13.73;;;;;;;24.04;60.00;96729.84;5033306;28;20606;-76
2021/06/10 10:23:38;;;;;;;16.42;13.18;;;;;;;24.14;59.27;96726.25;5033994;28;20091;-77
2021/06/10 10:26:06;;;;;;;16.63;12.20;;;;;;;24.32;58.69;96719.88;5039547;28;20048;-76
2021/06/10 10:28:34;;;;;;;14.75;11.05;;;;;;;24.41;55.30;96715.53;5053857;28;20049;-76
2021/06/10 10:31:02;;;;;;;20.20;13.35;;;;;;;24.57;57.40;96726.25;5053468;28;20044;-76
2021/06/10 10:33:30;;;;;;;17.20;12.73;;;;;;;24.59;51.88;96707.16;5051987;28;20431;-76
2021/06/10 10:35:57;;;;;;;18.45;13.65;;;;;;;24.71;53.15;96712.31;5053148;28;20037;-77
2021/06/10 10:38:32;;;;;;;14.43;11.48;;;;;;;24.83;53.83;96710.28;5052239;28;20098;-77
2021/06/10 10:41:02;;;;;;;18.52;13.25;;;;;;;24.79;54.05;96703.91;5052339;28;20045;-77
2021/06/10 10:43:29;;;;;;;21.42;14.60;;;;;;;24.83;56.15;96696.34;5053369;28;20037;-76
2021/06/10 10:46:06;;;;;;;23.27;13.50;;;;;;;24.87;56.53;96688.78;5053119;28;20037;-77
2021/06/10 10:48:36;;;;;;;17.13;13.27;;;;;;;24.92;56.33;96688.38;5053324;28;20430;-76
2021/06/10 10:51:21;;;;;;;15.00;11.63;;;;;;;25.04;55.99;96679.53;5052752;28;20056;-76
2021/06/10 10:53:53;;;;;;;17.55;11.70;;;;;;;25.12;51.80;96686.72;5053257;28;20049;-76
2021/06/10 10:56:19;;;;;;;18.75;12.32;;;;;;;25.22;53.34;96685.09;5052320;28;20049;-77
2021/06/10 10:59:09;;;;;;;17.40;11.63;;;;;;;25.26;53.79;96685.84;5053246;28;20142;-76
2021/06/10 11:01:35;;;;;;;13.32;8.93;;;;;;;25.30;53.12;96685.81;5052734;28;20051;-76
2021/06/10 11:04:02;;;;;;;15.07;8.98;;;;;;;25.33;54.47;96679.44;5051491;28;20131;-76
2021/06/10 11:06:36;;;;;;;12.40;9.25;;;;;;;25.39;51.17;96684.19;5052832;28;20107;-76
2021/06/10 11:09:10;;;;;;;13.82;8.25;;;;;;;25.44;49.96;96674.59;5052540;28;20132;-76
2021/06/10 11:11:56;;;;;;;13.18;9.50;;;;;;;25.45;47.52;96670.59;5053102;28;20056;-76
2021/06/10 11:14:37;;;;;;;14.15;9.75;;;;;;;25.34;46.97;96664.31;5052069;28;20071;-76
2021/06/10 11:17:24;;;;;;;23.55;11.85;;;;;;;25.29;48.76;96667.53;5052437;28;20052;-76
2021/06/10 11:19:53;;;;;;;13.90;11.13;;;;;;;25.20;52.60;96663.16;5052093;28;20132;-76